Flight Track Log - Related Links

Times and Time Zones

All times are in EDT time to prevent confusion due to time zone crossing. See the FIV606 flight status page for this flight to view local times or setup timezone preferences in your user account.

Time Position Orientation Groundspeed Altitude Reporting Facility
EDT Latitude Longitude Course Direction KTS MPH feet Rate Location/Type
Sat 04:01:24 PM 38.6333 -90.7000 109° East 222 255 3,800  Level Gateway (St. Louis) TRACON
Sat 04:02:03 PM 38.5978 -90.6747 151° Southeast 250 288 5,400 3,480 Climbing Kansas City Center
Sat 04:03:04 PM 38.5753 -90.5750 106° East 281 323 9,600 3,902 Climbing Kansas City Center
Sat 04:04:06 PM 38.5636 -90.4533 97° East 324 373 13,400 2,613 Climbing Kansas City Center
Sat 04:05:08 PM 38.5483 -90.3103 98° East 393 452 15,000 1,805 Climbing Kansas City Center
Sat 04:06:00 PM 38.6139 -89.8949 109° East  Level FlightAware Approximate
Sat 04:06:09 PM 38.5300 -90.1439 98° East 414 476 17,100  Level Kansas City Center
Sat 04:07:11 PM 38.5139 -89.9956 98° East 423 487 20,400 3,000 Climbing Kansas City Center
Sat 04:08:13 PM 38.4969 -89.8450 98° East 429 494 23,300 2,537 Climbing Kansas City Center
Sat 04:09:14 PM 38.4789 -89.6769 98° East 447 514 25,600 2,293 Climbing Kansas City Center
Sat 04:10:16 PM 38.4592 -89.5019 98° East 463 533 28,000 2,341 Climbing Kansas City Center
Sat 04:11:17 PM 38.4400 -89.3381 98° East 467 537 30,400 2,390 Climbing Kansas City Center
Sat 04:12:19 PM 38.4211 -89.1803 99° East 455 524 32,900 2,323 Climbing Kansas City Center
Sat 04:13:21 PM 38.3719 -89.0211 111° Southeast 448 516 35,200 2,000 Climbing Kansas City Center
Sat 04:14:22 PM 38.3222 -88.8856 115° Southeast 438 504 37,000 878 Climbing Kansas City Center
Sat 04:15:24 PM 38.2717 -88.7386 114° Southeast 449 517 37,000 532 Level Kansas City Center
Sat 04:16:26 PM 38.2114 -88.5697 114° Southeast 479 551 38,100 1,268 Climbing Kansas City Center
Sat 04:17:27 PM 38.1592 -88.4169 113° Southeast 475 547 39,600 1,220 Climbing Kansas City Center
Sat 04:18:29 PM 38.1072 -88.2669 114° Southeast 466 536 40,600 683 Climbing Kansas City Center
Sat 04:19:30 PM 38.0581 -88.1136 112° Southeast 468 539 41,000 195 Climbing Kansas City Center
Sat 04:20:32 PM 38.0089 -87.9569 112° Southeast 474 545 41,000  Level Kansas City Center
Sat 04:21:22 PM 37.9647 -87.8264 113° Southeast 498 573 41,000  Level Indianapolis Center
Sat 04:22:24 PM 37.9108 -87.6650 113° Southeast 499 574 41,000  Level Indianapolis Center
Sat 04:23:25 PM 37.8456 -87.4692 113° Southeast 505 581 41,000  Level Indianapolis Center
Sat 04:24:26 PM 37.8356 -87.2911 94° East 520 598 41,000  Level Indianapolis Center
Sat 04:25:28 PM 37.8683 -87.1131 77° East 522 601 41,000  Level Indianapolis Center
Sat 04:26:29 PM 37.9003 -86.9344 77° East 525 604 41,000  Level Indianapolis Center
Sat 04:27:30 PM 37.9333 -86.7567 77° East 524 603 41,000  Level Indianapolis Center
Sat 04:28:32 PM 37.9656 -86.5758 77° East 527 606 41,000  Level Indianapolis Center
Sat 04:29:33 PM 37.9967 -86.3972 77° East 522 601 41,000  Level Indianapolis Center
Sat 04:30:34 PM 38.0289 -86.2175 77° East 524 603 41,000  Level Indianapolis Center
Sat 04:31:35 PM 38.0661 -86.0022 78° East 522 601 41,000  Level Indianapolis Center
Sat 04:32:37 PM 38.0978 -85.8228 77° East 522 601 41,000  Level Indianapolis Center
Sat 04:33:38 PM 38.1292 -85.6422 77° East 523 602 41,000  Level Indianapolis Center
Sat 04:34:39 PM 38.1597 -85.4619 78° East 523 602 41,000  Level Indianapolis Center
Sat 04:35:41 PM 38.1900 -85.2825 78° East 520 598 41,000  Level Indianapolis Center
Sat 04:36:42 PM 38.2192 -85.1003 78° East 521 600 41,000  Level Indianapolis Center
Sat 04:37:43 PM 38.2486 -84.9200 78° East 520 598 41,000  Level Indianapolis Center
Sat 04:38:45 PM 38.2792 -84.7403 78° East 518 596 41,000  Level Indianapolis Center
Sat 04:39:46 PM 38.3061 -84.5586 79° East 522 601 41,000  Level Indianapolis Center
Sat 04:40:47 PM 38.3358 -84.3772 78° East 522 601 41,000  Level Indianapolis Center
Sat 04:41:48 PM 38.3692 -84.1653 79° East 523 602 41,000  Level Indianapolis Center
Sat 04:42:50 PM 38.3969 -83.9853 79° East 520 598 41,000  Level Indianapolis Center
Sat 04:43:51 PM 38.4242 -83.8047 79° East 516 594 41,000  Level Indianapolis Center
Sat 04:44:52 PM 38.4517 -83.6236 79° East 518 596 41,000  Level Indianapolis Center
Sat 04:45:54 PM 38.4786 -83.4433 79° East 516 594 41,000  Level Indianapolis Center
Sat 04:46:55 PM 38.5061 -83.2617 79° East 519 597 41,000  Level Indianapolis Center
Sat 04:47:56 PM 38.5325 -83.0789 79° East 521 600 41,000 -146 Level Indianapolis Center
Sat 04:48:58 PM 38.5553 -82.8969 81° East 518 596 40,700 -878 Descending Indianapolis Center
Sat 04:49:59 PM 38.5553 -82.7086 90° East 527 606 39,200 -1,475 Descending Indianapolis Center
Sat 04:51:00 PM 38.5572 -82.5181 89° East 532 612 37,700 -1,623 Descending Indianapolis Center
Sat 04:52:01 PM 38.5597 -82.2981 89° East 543 625 35,900 -1,610 Descending Indianapolis Center
Sat 04:53:03 PM 38.5628 -82.1017 89° East 551 634 34,400 -1,415 Descending Indianapolis Center
Sat 04:54:04 PM 38.5672 -81.9047 88° East 556 640 33,000 -1,426 Descending Indianapolis Center
Sat 04:55:05 PM 38.5739 -81.7128 87° East 550 633 31,500 -1,463 Descending Indianapolis Center
Sat 04:56:07 PM 38.5953 -81.5319 81° East 531 611 30,000 -1,415 Descending Indianapolis Center
Sat 04:57:08 PM 38.6286 -81.3592 76° East 516 594 28,600 -1,574 Descending Indianapolis Center
Sat 04:58:09 PM 38.6642 -81.1517 78° East 504 580 26,800 -1,659 Descending Indianapolis Center
Sat 04:59:11 PM 38.6928 -80.9814 78° East 493 567 25,200 -878 Descending Indianapolis Center
Sat 05:00:12 PM 38.7206 -80.8217 77° East 466 536 25,000 -98 Descending Indianapolis Center
Sat 05:01:13 PM 38.7486 -80.6572 78° East 470 541 25,000  Level Indianapolis Center
Sat 05:02:15 PM 38.7756 -80.4906 78° East 477 549 25,000 -488 Level Indianapolis Center
Sat 05:03:16 PM 38.8031 -80.3239 78° East 479 551 24,000 -1,230 Descending Indianapolis Center
Sat 05:04:17 PM 38.8322 -80.1617 77° East 468 539 22,500 -1,043 Descending Indianapolis Center
Sat 05:05:11 PM 38.8592 -80.0119 77° East 452 520 22,000 -261 Descending Washington Center
Sat 05:06:12 PM 38.8814 -79.8586 79° East 459 528 22,000  Level Washington Center
Sat 05:07:10 PM 38.9078 -79.7025 78° East 464 534 22,000  Level Washington Center
Sat 05:08:11 PM 38.9339 -79.5439 78° East 459 528 22,000  Level Washington Center
Sat 05:09:12 PM 38.9597 -79.3878 78° East 459 528 22,000 -915 Level Washington Center
Sat 05:10:09 PM 38.9856 -79.2289 78° East 454 522 20,200 -2,186 Descending Washington Center
Sat 05:11:10 PM 39.0047 -79.0750 81° East 443 510 17,700 -2,390 Descending Washington Center
Sat 05:12:12 PM 39.0278 -78.9289 78° East 436 502 15,300 -2,164 Descending Washington Center
Sat 05:13:12 PM 39.0508 -78.7669 80° East 421 484 13,300 -2,359 Descending Washington Center
Sat 05:14:09 PM 39.0658 -78.6689 79° East 375 432 10,700 -2,390 Descending Washington Center
Sat 05:15:10 PM 39.0833 -78.5572 79° East 341 392 8,600 -1,967 Descending Washington Center
Sat 05:16:11 PM 39.0983 -78.4481 80° East 320 368 6,700 -1,750 Descending Washington Center
Sat 05:17:10 PM 39.1136 -78.3283 81° East 304 350 5,100 -850 Descending Washington Center
Sat 05:18:11 PM 39.1264 -78.2217 81° East 304 350 5,000 -50 Descending Washington Center
Sat 05:19:11 PM 39.1392 -78.1153 81° East 304 350 5,000  Level Washington Center
Sat 05:20:12 PM 39.1492 -78.0300 81° East 304 350 5,000  Level Washington Center
Sat 05:21:10 PM 39.1492 -78.0300 180° South 304 350 5,000  Level Washington Center
Sat 05:22:11 PM 39.1492 -78.0300 180° South 304 350 5,000  Level Washington Center
Sat 05:25:00 PM 39.1333 -78.1333 270° West  Level FlightAware Approximate
Sat 05:32:00 PM 39.1435 -78.1444 270° West  Level Estimated
Sat 05:33:00 PM 39.1435 -78.1444 270° West  Level Estimated
Sat 05:34:00 PM 39.1435 -78.1444 270° West  Level Estimated
Sat 05:35:00 PM 39.1435 -78.1444 270° West  Level Estimated
Sat 05:36:00 PM 39.1435 -78.1444 270° West  Level Estimated
Sat 05:37:00 PM 39.1435 -78.1444 270° West  Level Estimated

Login

Don't have an account? Register now (free) for customized features, flight alerts, and more!